This is the latest recevied weather packets stored in our database for station/object KE2LU. If no packets are shown the sender has not sent any weather packets the latest 10 day(s).
| Time | Temp. | Humidity | Pressure | Rain* | Wind** | Luminosity | Snow |
|---|---|---|---|---|---|---|---|
| 1777590603 | 8.89° C | 68% | 1012.5 hPa | 0 mm | - | - | - |
| 1777589403 | 8.33° C | 68% | 1012.4 hPa | 0 mm | - | - | - |
| 1777588803 | 8.33° C | 68% | 1012.3 hPa | 0 mm | - | - | - |
| 1777587903 | 8.89° C | 66% | 1012.2 hPa | 0 mm | - | - | - |
| 1777584603 | 9.44° C | 63% | 1011.8 hPa | 0 mm | - | - | - |
| 1777578603 | 9.44° C | 66% | 1011.4 hPa | 0 mm | - | - | - |
| 1777577103 | 10.56° C | 62% | 1011.4 hPa | 0 mm | - | - | - |
| 1777575903 | 9.44° C | 70% | 1011.4 hPa | 0 mm | - | - | - |
| 1777575603 | 9.44° C | 68% | 1011.3 hPa | 0 mm | - | - | - |
| 1777572604 | 9.44° C | 71% | 1011.5 hPa | 0 mm | - | - | - |
| 1777572303 | 8.89° C | 70% | 1011.4 hPa | 0 mm | - | - | - |
| 1777569303 | 8.89° C | 74% | 1011.2 hPa | 0 mm | - | - | - |
| 1777569004 | 8.89° C | 74% | 1011.2 hPa | 0 mm | - | - | - |
| 1777567504 | 8.89° C | 76% | 1010.9 hPa | 0 mm | - | - | - |
| 1777566604 | 8.89° C | 75% | 1010.9 hPa | 0 mm | - | - | - |
| 1777566004 | 8.33° C | 76% | 1011 hPa | 0 mm | - | - | - |
| 1777564803 | 8.33° C | 77% | 1010.9 hPa | 0 mm | - | - | - |
| 1777564503 | 8.33° C | 76% | 1010.9 hPa | 0 mm | - | - | - |
| 1777562704 | 8.33° C | 77% | 1010.7 hPa | 0 mm | - | - | - |
| 1777562104 | 8.33° C | 76% | 1010.6 hPa | 0 mm | - | - | - |
| 1777557904 | 7.78° C | 81% | 1010.5 hPa | 0 mm | - | - | - |
| 1777554303 | 6.67° C | 86% | 1010.3 hPa | 0 mm | - | - | - |
| 1777554004 | 6.67° C | 87% | 1010.4 hPa | 0 mm | - | - | - |
| 1777552202 | 6.11° C | 93% | 1010.5 hPa | 0 mm | - | - | - |
| 1777551901 | 6.11° C | 93% | 1010.6 hPa | 0 mm | - | - | - |
* Rain latest hour (hover to see other rain measurements)
** Current wind speed in m/s (hover to see current wind gust speed)